sensor_id;sensor_type;location;lat;lon;timestamp;P1;durP1;ratioP1;P2;durP2;ratioP2
4837;SDS011;2433;48.768;9.154;2024-01-06T00:01:01;1.20;;;1.10;;
4837;SDS011;2433;48.768;9.154;2024-01-06T00:03:26;0.93;;;0.60;;
4837;SDS011;2433;48.768;9.154;2024-01-06T00:05:52;1.90;;;0.83;;
4837;SDS011;2433;48.768;9.154;2024-01-06T00:08:17;2.23;;;0.73;;
4837;SDS011;2433;48.768;9.154;2024-01-06T00:10:43;1.00;;;0.63;;
4837;SDS011;2433;48.768;9.154;2024-01-06T00:13:09;1.00;;;0.90;;
4837;SDS011;2433;48.768;9.154;2024-01-06T00:15:35;1.57;;;0.60;;
4837;SDS011;2433;48.768;9.154;2024-01-06T00:18:01;2.70;;;0.77;;
4837;SDS011;2433;48.768;9.154;2024-01-06T00:20:26;2.20;;;0.73;;
4837;SDS011;2433;48.768;9.154;2024-01-06T00:22:52;1.67;;;1.00;;
4837;SDS011;2433;48.768;9.154;2024-01-06T00:25:17;0.70;;;0.50;;
4837;SDS011;2433;48.768;9.154;2024-01-06T00:27:43;3.17;;;1.10;;
4837;SDS011;2433;48.768;9.154;2024-01-06T00:30:09;1.20;;;0.67;;
4837;SDS011;2433;48.768;9.154;2024-01-06T00:32:34;0.80;;;0.77;;
4837;SDS011;2433;48.768;9.154;2024-01-06T00:35:00;0.67;;;0.57;;
4837;SDS011;2433;48.768;9.154;2024-01-06T00:37:26;3.03;;;1.23;;
4837;SDS011;2433;48.768;9.154;2024-01-06T00:39:51;2.63;;;0.80;;
4837;SDS011;2433;48.768;9.154;2024-01-06T00:42:17;0.97;;;0.60;;
4837;SDS011;2433;48.768;9.154;2024-01-06T00:44:42;1.40;;;0.80;;
4837;SDS011;2433;48.768;9.154;2024-01-06T00:47:10;1.67;;;0.73;;
4837;SDS011;2433;48.768;9.154;2024-01-06T00:49:36;1.47;;;0.60;;
4837;SDS011;2433;48.768;9.154;2024-01-06T00:52:02;1.07;;;0.50;;
4837;SDS011;2433;48.768;9.154;2024-01-06T00:54:27;0.60;;;0.47;;
4837;SDS011;2433;48.768;9.154;2024-01-06T00:56:53;1.20;;;0.80;;
4837;SDS011;2433;48.768;9.154;2024-01-06T00:59:18;0.63;;;0.40;;
4837;SDS011;2433;48.768;9.154;2024-01-06T01:01:44;6.83;;;0.80;;
4837;SDS011;2433;48.768;9.154;2024-01-06T01:04:09;2.30;;;0.90;;
4837;SDS011;2433;48.768;9.154;2024-01-06T01:06:36;1.93;;;0.83;;
4837;SDS011;2433;48.768;9.154;2024-01-06T01:09:02;0.60;;;0.43;;
4837;SDS011;2433;48.768;9.154;2024-01-06T01:11:28;1.80;;;0.67;;
4837;SDS011;2433;48.768;9.154;2024-01-06T01:13:53;0.60;;;0.40;;
4837;SDS011;2433;48.768;9.154;2024-01-06T01:16:19;0.60;;;0.57;;
4837;SDS011;2433;48.768;9.154;2024-01-06T01:18:45;0.70;;;0.50;;
4837;SDS011;2433;48.768;9.154;2024-01-06T01:21:10;0.60;;;0.50;;
4837;SDS011;2433;48.768;9.154;2024-01-06T01:23:36;0.90;;;0.80;;
4837;SDS011;2433;48.768;9.154;2024-01-06T01:26:01;0.90;;;0.60;;
4837;SDS011;2433;48.768;9.154;2024-01-06T01:28:27;1.27;;;0.70;;
4837;SDS011;2433;48.768;9.154;2024-01-06T01:30:52;2.53;;;0.93;;
4837;SDS011;2433;48.768;9.154;2024-01-06T01:33:18;1.20;;;0.80;;
4837;SDS011;2433;48.768;9.154;2024-01-06T01:35:44;0.70;;;0.50;;
4837;SDS011;2433;48.768;9.154;2024-01-06T01:38:09;1.93;;;1.20;;
4837;SDS011;2433;48.768;9.154;2024-01-06T01:40:35;1.17;;;0.83;;
4837;SDS011;2433;48.768;9.154;2024-01-06T01:43:00;0.60;;;0.40;;
4837;SDS011;2433;48.768;9.154;2024-01-06T01:45:26;1.80;;;0.87;;
4837;SDS011;2433;48.768;9.154;2024-01-06T01:47:51;1.17;;;0.73;;
4837;SDS011;2433;48.768;9.154;2024-01-06T01:50:17;0.80;;;0.70;;
4837;SDS011;2433;48.768;9.154;2024-01-06T01:52:43;3.27;;;0.90;;
4837;SDS011;2433;48.768;9.154;2024-01-06T01:55:08;2.27;;;0.93;;
4837;SDS011;2433;48.768;9.154;2024-01-06T01:57:34;0.70;;;0.60;;
4837;SDS011;2433;48.768;9.154;2024-01-06T02:00:00;0.60;;;0.40;;
4837;SDS011;2433;48.768;9.154;2024-01-06T02:02:26;0.70;;;0.60;;
4837;SDS011;2433;48.768;9.154;2024-01-06T02:04:52;1.13;;;0.87;;
4837;SDS011;2433;48.768;9.154;2024-01-06T02:07:17;0.83;;;0.60;;
4837;SDS011;2433;48.768;9.154;2024-01-06T02:09:43;1.73;;;0.90;;
4837;SDS011;2433;48.768;9.154;2024-01-06T02:12:08;0.80;;;0.40;;
4837;SDS011;2433;48.768;9.154;2024-01-06T02:14:34;0.60;;;0.47;;
4837;SDS011;2433;48.768;9.154;2024-01-06T02:16:59;3.10;;;1.00;;
4837;SDS011;2433;48.768;9.154;2024-01-06T02:19:25;1.17;;;0.80;;
4837;SDS011;2433;48.768;9.154;2024-01-06T02:21:53;1.77;;;0.63;;
4837;SDS011;2433;48.768;9.154;2024-01-06T02:24:19;1.53;;;0.50;;
4837;SDS011;2433;48.768;9.154;2024-01-06T02:26:45;0.90;;;0.60;;
4837;SDS011;2433;48.768;9.154;2024-01-06T02:29:11;1.40;;;0.57;;
4837;SDS011;2433;48.768;9.154;2024-01-06T02:31:36;0.63;;;0.53;;
4837;SDS011;2433;48.768;9.154;2024-01-06T02:34:02;2.33;;;0.57;;
4837;SDS011;2433;48.768;9.154;2024-01-06T02:36:27;0.57;;;0.50;;
4837;SDS011;2433;48.768;9.154;2024-01-06T02:38:53;0.80;;;0.60;;
4837;SDS011;2433;48.768;9.154;2024-01-06T02:41:18;0.83;;;0.57;;
4837;SDS011;2433;48.768;9.154;2024-01-06T02:43:44;0.93;;;0.60;;
4837;SDS011;2433;48.768;9.154;2024-01-06T02:46:09;1.80;;;0.63;;
4837;SDS011;2433;48.768;9.154;2024-01-06T02:48:35;0.73;;;0.73;;
4837;SDS011;2433;48.768;9.154;2024-01-06T02:51:01;0.73;;;0.70;;
4837;SDS011;2433;48.768;9.154;2024-01-06T02:53:26;0.80;;;0.50;;
4837;SDS011;2433;48.768;9.154;2024-01-06T02:55:52;1.70;;;1.33;;
4837;SDS011;2433;48.768;9.154;2024-01-06T02:58:17;1.10;;;0.80;;
4837;SDS011;2433;48.768;9.154;2024-01-06T03:00:43;2.77;;;0.83;;
4837;SDS011;2433;48.768;9.154;2024-01-06T03:03:08;1.97;;;1.03;;
4837;SDS011;2433;48.768;9.154;2024-01-06T03:05:34;0.50;;;0.40;;
4837;SDS011;2433;48.768;9.154;2024-01-06T03:07:59;2.00;;;1.00;;
4837;SDS011;2433;48.768;9.154;2024-01-06T03:10:25;1.93;;;1.07;;
4837;SDS011;2433;48.768;9.154;2024-01-06T03:12:51;0.87;;;0.60;;
4837;SDS011;2433;48.768;9.154;2024-01-06T03:15:16;1.17;;;0.50;;
4837;SDS011;2433;48.768;9.154;2024-01-06T03:17:42;1.30;;;0.43;;
4837;SDS011;2433;48.768;9.154;2024-01-06T03:20:08;1.00;;;0.87;;
4837;SDS011;2433;48.768;9.154;2024-01-06T03:22:34;1.27;;;0.53;;
4837;SDS011;2433;48.768;9.154;2024-01-06T03:24:59;1.20;;;0.70;;
4837;SDS011;2433;48.768;9.154;2024-01-06T03:27:25;1.53;;;0.80;;
4837;SDS011;2433;48.768;9.154;2024-01-06T03:29:51;5.60;;;1.03;;
4837;SDS011;2433;48.768;9.154;2024-01-06T03:32:16;0.90;;;0.70;;
4837;SDS011;2433;48.768;9.154;2024-01-06T03:34:42;6.53;;;1.70;;
4837;SDS011;2433;48.768;9.154;2024-01-06T03:37:08;0.80;;;0.77;;
4837;SDS011;2433;48.768;9.154;2024-01-06T03:39:33;2.23;;;0.77;;
4837;SDS011;2433;48.768;9.154;2024-01-06T03:41:59;1.23;;;1.10;;
4837;SDS011;2433;48.768;9.154;2024-01-06T03:44:25;1.40;;;0.70;;
4837;SDS011;2433;48.768;9.154;2024-01-06T03:46:56;3.70;;;0.87;;
4837;SDS011;2433;48.768;9.154;2024-01-06T03:49:23;1.00;;;0.70;;
4837;SDS011;2433;48.768;9.154;2024-01-06T03:51:49;0.90;;;0.80;;
4837;SDS011;2433;48.768;9.154;2024-01-06T03:54:14;2.03;;;1.07;;
4837;SDS011;2433;48.768;9.154;2024-01-06T03:56:40;3.47;;;1.00;;
4837;SDS011;2433;48.768;9.154;2024-01-06T03:59:06;0.70;;;0.60;;
4837;SDS011;2433;48.768;9.154;2024-01-06T04:01:31;1.90;;;0.50;;
4837;SDS011;2433;48.768;9.154;2024-01-06T04:04:00;0.77;;;0.60;;
4837;SDS011;2433;48.768;9.154;2024-01-06T04:06:26;1.87;;;1.13;;
4837;SDS011;2433;48.768;9.154;2024-01-06T04:08:52;2.57;;;0.60;;
4837;SDS011;2433;48.768;9.154;2024-01-06T04:11:20;2.00;;;0.60;;
4837;SDS011;2433;48.768;9.154;2024-01-06T04:13:46;0.97;;;0.77;;
4837;SDS011;2433;48.768;9.154;2024-01-06T04:16:11;0.60;;;0.53;;
4837;SDS011;2433;48.768;9.154;2024-01-06T04:18:37;0.93;;;0.60;;
4837;SDS011;2433;48.768;9.154;2024-01-06T04:21:03;1.23;;;0.50;;
4837;SDS011;2433;48.768;9.154;2024-01-06T04:23:30;1.80;;;0.70;;
4837;SDS011;2433;48.768;9.154;2024-01-06T04:25:56;0.97;;;0.67;;
4837;SDS011;2433;48.768;9.154;2024-01-06T04:28:21;1.67;;;0.70;;
4837;SDS011;2433;48.768;9.154;2024-01-06T04:30:47;0.83;;;0.70;;
4837;SDS011;2433;48.768;9.154;2024-01-06T04:33:13;0.87;;;0.70;;
4837;SDS011;2433;48.768;9.154;2024-01-06T04:35:38;3.27;;;0.90;;
4837;SDS011;2433;48.768;9.154;2024-01-06T04:38:04;4.93;;;1.07;;
4837;SDS011;2433;48.768;9.154;2024-01-06T04:40:29;1.43;;;0.63;;
4837;SDS011;2433;48.768;9.154;2024-01-06T04:42:55;5.07;;;1.00;;
4837;SDS011;2433;48.768;9.154;2024-01-06T04:45:21;1.97;;;1.13;;
4837;SDS011;2433;48.768;9.154;2024-01-06T04:47:48;0.70;;;0.60;;
4837;SDS011;2433;48.768;9.154;2024-01-06T04:50:14;0.93;;;0.70;;
4837;SDS011;2433;48.768;9.154;2024-01-06T04:52:40;0.80;;;0.80;;
4837;SDS011;2433;48.768;9.154;2024-01-06T04:55:05;1.00;;;0.63;;
4837;SDS011;2433;48.768;9.154;2024-01-06T04:57:31;1.13;;;0.97;;
4837;SDS011;2433;48.768;9.154;2024-01-06T04:59:56;1.93;;;0.60;;
4837;SDS011;2433;48.768;9.154;2024-01-06T05:02:22;0.80;;;0.80;;
4837;SDS011;2433;48.768;9.154;2024-01-06T05:04:47;0.83;;;0.83;;
4837;SDS011;2433;48.768;9.154;2024-01-06T05:07:13;0.50;;;0.37;;
4837;SDS011;2433;48.768;9.154;2024-01-06T05:09:38;3.03;;;0.80;;
4837;SDS011;2433;48.768;9.154;2024-01-06T05:12:04;0.80;;;0.50;;
4837;SDS011;2433;48.768;9.154;2024-01-06T05:14:30;0.93;;;0.77;;
4837;SDS011;2433;48.768;9.154;2024-01-06T05:16:55;1.03;;;0.63;;
4837;SDS011;2433;48.768;9.154;2024-01-06T05:19:21;0.63;;;0.60;;
4837;SDS011;2433;48.768;9.154;2024-01-06T05:21:47;1.70;;;0.40;;
4837;SDS011;2433;48.768;9.154;2024-01-06T05:24:13;1.00;;;0.77;;
4837;SDS011;2433;48.768;9.154;2024-01-06T05:26:39;1.30;;;0.53;;
4837;SDS011;2433;48.768;9.154;2024-01-06T05:29:04;0.50;;;0.40;;
4837;SDS011;2433;48.768;9.154;2024-01-06T05:31:30;0.80;;;0.80;;
4837;SDS011;2433;48.768;9.154;2024-01-06T05:33:55;1.13;;;0.97;;
4837;SDS011;2433;48.768;9.154;2024-01-06T05:36:21;1.07;;;0.67;;
4837;SDS011;2433;48.768;9.154;2024-01-06T05:38:46;4.40;;;0.80;;
4837;SDS011;2433;48.768;9.154;2024-01-06T05:41:12;0.73;;;0.57;;
4837;SDS011;2433;48.768;9.154;2024-01-06T05:43:37;1.87;;;0.90;;
4837;SDS011;2433;48.768;9.154;2024-01-06T05:46:04;1.10;;;0.70;;
4837;SDS011;2433;48.768;9.154;2024-01-06T05:48:29;0.60;;;0.40;;
4837;SDS011;2433;48.768;9.154;2024-01-06T05:50:55;1.40;;;0.93;;
4837;SDS011;2433;48.768;9.154;2024-01-06T05:53:20;1.13;;;0.50;;
4837;SDS011;2433;48.768;9.154;2024-01-06T05:55:47;1.23;;;0.67;;
4837;SDS011;2433;48.768;9.154;2024-01-06T05:58:13;2.03;;;0.60;;
4837;SDS011;2433;48.768;9.154;2024-01-06T06:00:38;0.53;;;0.53;;
4837;SDS011;2433;48.768;9.154;2024-01-06T06:03:05;1.70;;;0.60;;
4837;SDS011;2433;48.768;9.154;2024-01-06T06:05:30;2.10;;;0.70;;
4837;SDS011;2433;48.768;9.154;2024-01-06T06:07:56;1.00;;;0.90;;
4837;SDS011;2433;48.768;9.154;2024-01-06T06:10:21;1.00;;;0.80;;
4837;SDS011;2433;48.768;9.154;2024-01-06T06:12:47;0.70;;;0.50;;
4837;SDS011;2433;48.768;9.154;2024-01-06T06:15:13;2.27;;;0.50;;
4837;SDS011;2433;48.768;9.154;2024-01-06T06:17:39;0.90;;;0.53;;
4837;SDS011;2433;48.768;9.154;2024-01-06T06:20:05;0.97;;;0.67;;
4837;SDS011;2433;48.768;9.154;2024-01-06T06:22:32;1.00;;;0.80;;
4837;SDS011;2433;48.768;9.154;2024-01-06T06:24:58;0.60;;;0.40;;
4837;SDS011;2433;48.768;9.154;2024-01-06T06:27:24;1.23;;;0.70;;
4837;SDS011;2433;48.768;9.154;2024-01-06T06:29:50;0.90;;;0.50;;
4837;SDS011;2433;48.768;9.154;2024-01-06T06:32:15;0.90;;;0.77;;
4837;SDS011;2433;48.768;9.154;2024-01-06T06:34:42;0.87;;;0.80;;
4837;SDS011;2433;48.768;9.154;2024-01-06T06:37:07;3.27;;;0.97;;
4837;SDS011;2433;48.768;9.154;2024-01-06T06:39:33;0.83;;;0.60;;
4837;SDS011;2433;48.768;9.154;2024-01-06T06:41:59;1.03;;;0.60;;
4837;SDS011;2433;48.768;9.154;2024-01-06T06:44:25;2.20;;;0.60;;
4837;SDS011;2433;48.768;9.154;2024-01-06T06:46:50;0.80;;;0.50;;
4837;SDS011;2433;48.768;9.154;2024-01-06T06:49:16;0.60;;;0.60;;
4837;SDS011;2433;48.768;9.154;2024-01-06T06:51:41;1.03;;;0.53;;
4837;SDS011;2433;48.768;9.154;2024-01-06T06:54:12;1.20;;;0.60;;
4837;SDS011;2433;48.768;9.154;2024-01-06T06:56:38;0.70;;;0.67;;
4837;SDS011;2433;48.768;9.154;2024-01-06T06:59:03;0.73;;;0.73;;
4837;SDS011;2433;48.768;9.154;2024-01-06T07:01:29;1.83;;;0.60;;
4837;SDS011;2433;48.768;9.154;2024-01-06T07:03:56;3.00;;;0.70;;
4837;SDS011;2433;48.768;9.154;2024-01-06T07:06:21;0.50;;;0.47;;
4837;SDS011;2433;48.768;9.154;2024-01-06T07:08:47;1.60;;;0.80;;
4837;SDS011;2433;48.768;9.154;2024-01-06T07:11:12;0.53;;;0.53;;
4837;SDS011;2433;48.768;9.154;2024-01-06T07:13:40;1.40;;;0.40;;
4837;SDS011;2433;48.768;9.154;2024-01-06T07:16:06;0.77;;;0.67;;
4837;SDS011;2433;48.768;9.154;2024-01-06T07:18:32;0.83;;;0.57;;
4837;SDS011;2433;48.768;9.154;2024-01-06T07:20:58;2.60;;;0.60;;
4837;SDS011;2433;48.768;9.154;2024-01-06T07:23:23;1.80;;;0.90;;
4837;SDS011;2433;48.768;9.154;2024-01-06T07:25:49;0.60;;;0.53;;
4837;SDS011;2433;48.768;9.154;2024-01-06T07:28:15;0.70;;;0.60;;
4837;SDS011;2433;48.768;9.154;2024-01-06T07:30:40;2.30;;;0.80;;
4837;SDS011;2433;48.768;9.154;2024-01-06T07:33:06;1.73;;;1.10;;
4837;SDS011;2433;48.768;9.154;2024-01-06T07:35:31;1.70;;;1.00;;
4837;SDS011;2433;48.768;9.154;2024-01-06T07:37:57;1.07;;;0.97;;
4837;SDS011;2433;48.768;9.154;2024-01-06T07:40:22;3.50;;;0.80;;
4837;SDS011;2433;48.768;9.154;2024-01-06T07:42:50;2.40;;;0.97;;
4837;SDS011;2433;48.768;9.154;2024-01-06T07:45:16;1.80;;;0.60;;
4837;SDS011;2433;48.768;9.154;2024-01-06T07:47:42;1.43;;;1.00;;
4837;SDS011;2433;48.768;9.154;2024-01-06T07:50:08;1.47;;;0.93;;
4837;SDS011;2433;48.768;9.154;2024-01-06T07:52:34;0.97;;;0.80;;
4837;SDS011;2433;48.768;9.154;2024-01-06T07:54:59;0.60;;;0.60;;
4837;SDS011;2433;48.768;9.154;2024-01-06T07:57:25;1.07;;;0.70;;
4837;SDS011;2433;48.768;9.154;2024-01-06T07:59:51;0.67;;;0.60;;
4837;SDS011;2433;48.768;9.154;2024-01-06T08:02:16;0.87;;;0.87;;
4837;SDS011;2433;48.768;9.154;2024-01-06T08:04:42;0.83;;;0.60;;
4837;SDS011;2433;48.768;9.154;2024-01-06T08:07:08;1.53;;;1.10;;
4837;SDS011;2433;48.768;9.154;2024-01-06T08:09:33;0.80;;;0.50;;
4837;SDS011;2433;48.768;9.154;2024-01-06T08:11:59;0.93;;;0.50;;
4837;SDS011;2433;48.768;9.154;2024-01-06T08:14:24;0.97;;;0.80;;
4837;SDS011;2433;48.768;9.154;2024-01-06T08:16:50;3.13;;;0.70;;
4837;SDS011;2433;48.768;9.154;2024-01-06T08:19:15;1.77;;;0.80;;
4837;SDS011;2433;48.768;9.154;2024-01-06T08:21:41;2.00;;;0.87;;
4837;SDS011;2433;48.768;9.154;2024-01-06T08:24:07;0.87;;;0.57;;
4837;SDS011;2433;48.768;9.154;2024-01-06T08:26:32;0.90;;;0.80;;
4837;SDS011;2433;48.768;9.154;2024-01-06T08:28:58;1.03;;;0.90;;
4837;SDS011;2433;48.768;9.154;2024-01-06T08:31:24;0.40;;;0.30;;
4837;SDS011;2433;48.768;9.154;2024-01-06T08:33:49;0.73;;;0.50;;
4837;SDS011;2433;48.768;9.154;2024-01-06T08:36:15;1.80;;;0.70;;
4837;SDS011;2433;48.768;9.154;2024-01-06T08:38:41;0.77;;;0.60;;
4837;SDS011;2433;48.768;9.154;2024-01-06T08:41:06;1.40;;;1.30;;
4837;SDS011;2433;48.768;9.154;2024-01-06T08:43:32;1.80;;;0.97;;
4837;SDS011;2433;48.768;9.154;2024-01-06T08:45:57;2.73;;;1.00;;
4837;SDS011;2433;48.768;9.154;2024-01-06T08:48:23;1.00;;;0.60;;
4837;SDS011;2433;48.768;9.154;2024-01-06T08:50:48;1.10;;;0.60;;
4837;SDS011;2433;48.768;9.154;2024-01-06T08:53:15;1.10;;;0.60;;
4837;SDS011;2433;48.768;9.154;2024-01-06T08:55:41;0.70;;;0.70;;
4837;SDS011;2433;48.768;9.154;2024-01-06T08:58:06;1.07;;;0.87;;
4837;SDS011;2433;48.768;9.154;2024-01-06T09:00:31;1.67;;;0.60;;
4837;SDS011;2433;48.768;9.154;2024-01-06T09:02:57;1.00;;;0.70;;
4837;SDS011;2433;48.768;9.154;2024-01-06T09:05:22;1.27;;;0.83;;
4837;SDS011;2433;48.768;9.154;2024-01-06T09:07:48;1.53;;;1.13;;
4837;SDS011;2433;48.768;9.154;2024-01-06T09:10:16;3.87;;;0.90;;
4837;SDS011;2433;48.768;9.154;2024-01-06T09:12:42;1.00;;;0.87;;
4837;SDS011;2433;48.768;9.154;2024-01-06T09:15:08;1.67;;;1.07;;
4837;SDS011;2433;48.768;9.154;2024-01-06T09:17:33;2.77;;;0.97;;
4837;SDS011;2433;48.768;9.154;2024-01-06T09:20:00;0.80;;;0.70;;
4837;SDS011;2433;48.768;9.154;2024-01-06T09:22:26;3.10;;;0.80;;
4837;SDS011;2433;48.768;9.154;2024-01-06T09:24:52;0.90;;;0.50;;
4837;SDS011;2433;48.768;9.154;2024-01-06T09:27:19;1.13;;;0.60;;
4837;SDS011;2433;48.768;9.154;2024-01-06T09:29:44;0.83;;;0.70;;
4837;SDS011;2433;48.768;9.154;2024-01-06T09:32:10;1.63;;;0.93;;
4837;SDS011;2433;48.768;9.154;2024-01-06T09:34:35;2.87;;;0.83;;
4837;SDS011;2433;48.768;9.154;2024-01-06T09:37:01;1.07;;;0.97;;
4837;SDS011;2433;48.768;9.154;2024-01-06T09:39:27;1.00;;;0.83;;
4837;SDS011;2433;48.768;9.154;2024-01-06T09:41:52;1.00;;;0.70;;
4837;SDS011;2433;48.768;9.154;2024-01-06T09:44:18;0.90;;;0.87;;
4837;SDS011;2433;48.768;9.154;2024-01-06T09:46:44;1.13;;;0.80;;
4837;SDS011;2433;48.768;9.154;2024-01-06T09:49:09;0.87;;;0.80;;
4837;SDS011;2433;48.768;9.154;2024-01-06T09:51:39;0.77;;;0.70;;
4837;SDS011;2433;48.768;9.154;2024-01-06T09:54:06;1.70;;;0.90;;
4837;SDS011;2433;48.768;9.154;2024-01-06T09:56:34;1.43;;;0.90;;
4837;SDS011;2433;48.768;9.154;2024-01-06T09:59:01;0.80;;;0.67;;
4837;SDS011;2433;48.768;9.154;2024-01-06T10:01:27;1.27;;;0.60;;
4837;SDS011;2433;48.768;9.154;2024-01-06T10:03:52;1.23;;;0.80;;
4837;SDS011;2433;48.768;9.154;2024-01-06T10:06:18;1.97;;;0.80;;
4837;SDS011;2433;48.768;9.154;2024-01-06T10:08:48;1.00;;;0.80;;
4837;SDS011;2433;48.768;9.154;2024-01-06T10:11:15;1.00;;;0.57;;
4837;SDS011;2433;48.768;9.154;2024-01-06T10:13:40;0.60;;;0.50;;
4837;SDS011;2433;48.768;9.154;2024-01-06T10:16:06;0.60;;;0.60;;
4837;SDS011;2433;48.768;9.154;2024-01-06T10:18:32;0.97;;;0.77;;
4837;SDS011;2433;48.768;9.154;2024-01-06T10:20:58;0.57;;;0.50;;
4837;SDS011;2433;48.768;9.154;2024-01-06T10:23:25;1.13;;;0.87;;
4837;SDS011;2433;48.768;9.154;2024-01-06T10:25:55;1.40;;;1.10;;
4837;SDS011;2433;48.768;9.154;2024-01-06T10:28:22;0.83;;;0.77;;
4837;SDS011;2433;48.768;9.154;2024-01-06T10:30:53;1.53;;;0.97;;
4837;SDS011;2433;48.768;9.154;2024-01-06T10:33:20;2.10;;;0.90;;
4837;SDS011;2433;48.768;9.154;2024-01-06T10:35:46;1.90;;;0.70;;
4837;SDS011;2433;48.768;9.154;2024-01-06T10:38:12;1.00;;;0.83;;
4837;SDS011;2433;48.768;9.154;2024-01-06T10:40:40;0.77;;;0.77;;
4837;SDS011;2433;48.768;9.154;2024-01-06T10:43:05;0.80;;;0.53;;
4837;SDS011;2433;48.768;9.154;2024-01-06T10:45:31;0.67;;;0.50;;
4837;SDS011;2433;48.768;9.154;2024-01-06T10:47:57;2.30;;;0.63;;
4837;SDS011;2433;48.768;9.154;2024-01-06T10:50:23;0.50;;;0.37;;
4837;SDS011;2433;48.768;9.154;2024-01-06T10:52:48;0.60;;;0.57;;
4837;SDS011;2433;48.768;9.154;2024-01-06T10:55:15;1.17;;;0.63;;
4837;SDS011;2433;48.768;9.154;2024-01-06T10:57:46;1.53;;;0.70;;
4837;SDS011;2433;48.768;9.154;2024-01-06T11:00:12;1.17;;;0.87;;
4837;SDS011;2433;48.768;9.154;2024-01-06T11:02:38;3.10;;;0.80;;
4837;SDS011;2433;48.768;9.154;2024-01-06T11:05:04;0.80;;;0.60;;
4837;SDS011;2433;48.768;9.154;2024-01-06T11:07:33;1.67;;;0.93;;
4837;SDS011;2433;48.768;9.154;2024-01-06T11:12:32;1.47;;;1.07;;
4837;SDS011;2433;48.768;9.154;2024-01-06T11:14:58;1.67;;;1.57;;
4837;SDS011;2433;48.768;9.154;2024-01-06T11:20:23;3.17;;;1.03;;
4837;SDS011;2433;48.768;9.154;2024-01-06T11:22:50;0.67;;;0.67;;
4837;SDS011;2433;48.768;9.154;2024-01-06T11:25:17;1.60;;;0.70;;
4837;SDS011;2433;48.768;9.154;2024-01-06T11:27:45;0.70;;;0.70;;
4837;SDS011;2433;48.768;9.154;2024-01-06T11:30:19;1.10;;;0.50;;
4837;SDS011;2433;48.768;9.154;2024-01-06T11:32:50;1.10;;;0.70;;
4837;SDS011;2433;48.768;9.154;2024-01-06T11:35:18;0.70;;;0.60;;
4837;SDS011;2433;48.768;9.154;2024-01-06T11:42:44;0.50;;;0.30;;
4837;SDS011;2433;48.768;9.154;2024-01-06T11:45:11;0.80;;;0.70;;
4837;SDS011;2433;48.768;9.154;2024-01-06T11:47:38;1.07;;;0.73;;
4837;SDS011;2433;48.768;9.154;2024-01-06T11:50:05;1.10;;;0.90;;
4837;SDS011;2433;48.768;9.154;2024-01-06T11:52:31;2.03;;;1.10;;
4837;SDS011;2433;48.768;9.154;2024-01-06T11:54:57;1.27;;;1.05;;
4837;SDS011;2433;48.768;9.154;2024-01-06T11:57:25;1.77;;;1.05;;
4837;SDS011;2433;48.768;9.154;2024-01-06T11:59:53;3.05;;;1.50;;
4837;SDS011;2433;48.768;9.154;2024-01-06T12:02:19;0.90;;;0.80;;
4837;SDS011;2433;48.768;9.154;2024-01-06T12:04:53;1.23;;;1.02;;
4837;SDS011;2433;48.768;9.154;2024-01-06T12:07:19;1.23;;;1.13;;
4837;SDS011;2433;48.768;9.154;2024-01-06T12:10:00;1.55;;;0.80;;
4837;SDS011;2433;48.768;9.154;2024-01-06T12:12:27;1.27;;;1.17;;
4837;SDS011;2433;48.768;9.154;2024-01-06T12:14:52;1.80;;;1.20;;
4837;SDS011;2433;48.768;9.154;2024-01-06T12:17:19;1.37;;;1.20;;
4837;SDS011;2433;48.768;9.154;2024-01-06T12:19:45;1.00;;;0.70;;
4837;SDS011;2433;48.768;9.154;2024-01-06T12:22:12;1.60;;;1.40;;
4837;SDS011;2433;48.768;9.154;2024-01-06T12:24:38;1.53;;;1.17;;
4837;SDS011;2433;48.768;9.154;2024-01-06T12:27:06;1.87;;;1.43;;
4837;SDS011;2433;48.768;9.154;2024-01-06T12:29:33;1.10;;;0.60;;
4837;SDS011;2433;48.768;9.154;2024-01-06T12:31:59;0.90;;;0.77;;
4837;SDS011;2433;48.768;9.154;2024-01-06T12:34:25;2.17;;;1.30;;
4837;SDS011;2433;48.768;9.154;2024-01-06T12:36:55;1.10;;;0.90;;
4837;SDS011;2433;48.768;9.154;2024-01-06T12:39:20;1.33;;;1.00;;
4837;SDS011;2433;48.768;9.154;2024-01-06T12:41:46;2.30;;;1.37;;
4837;SDS011;2433;48.768;9.154;2024-01-06T12:44:11;1.13;;;1.00;;
4837;SDS011;2433;48.768;9.154;2024-01-06T12:46:38;3.53;;;1.03;;
4837;SDS011;2433;48.768;9.154;2024-01-06T12:49:04;6.03;;;1.40;;
4837;SDS011;2433;48.768;9.154;2024-01-06T12:51:29;1.43;;;0.90;;
4837;SDS011;2433;48.768;9.154;2024-01-06T12:53:55;3.00;;;1.10;;
4837;SDS011;2433;48.768;9.154;2024-01-06T12:56:20;1.60;;;1.37;;
4837;SDS011;2433;48.768;9.154;2024-01-06T12:58:46;1.50;;;1.40;;
4837;SDS011;2433;48.768;9.154;2024-01-06T13:01:12;1.60;;;1.13;;
4837;SDS011;2433;48.768;9.154;2024-01-06T13:03:37;1.30;;;0.83;;
4837;SDS011;2433;48.768;9.154;2024-01-06T13:06:03;1.70;;;1.60;;
4837;SDS011;2433;48.768;9.154;2024-01-06T13:08:29;1.17;;;0.87;;
4837;SDS011;2433;48.768;9.154;2024-01-06T13:10:55;0.40;;;0.30;;
4837;SDS011;2433;48.768;9.154;2024-01-06T13:13:21;1.63;;;1.50;;
4837;SDS011;2433;48.768;9.154;2024-01-06T13:15:47;4.30;;;1.27;;
4837;SDS011;2433;48.768;9.154;2024-01-06T13:18:12;1.50;;;1.40;;
4837;SDS011;2433;48.768;9.154;2024-01-06T13:20:38;1.33;;;0.97;;
4837;SDS011;2433;48.768;9.154;2024-01-06T13:23:06;2.80;;;2.00;;
4837;SDS011;2433;48.768;9.154;2024-01-06T13:25:32;1.67;;;1.57;;
4837;SDS011;2433;48.768;9.154;2024-01-06T13:27:58;1.73;;;1.52;;
4837;SDS011;2433;48.768;9.154;2024-01-06T13:30:25;2.30;;;1.88;;
4837;SDS011;2433;48.768;9.154;2024-01-06T13:32:51;2.75;;;1.63;;
4837;SDS011;2433;48.768;9.154;2024-01-06T13:35:22;4.73;;;1.80;;
4837;SDS011;2433;48.768;9.154;2024-01-06T13:37:52;1.30;;;1.20;;
4837;SDS011;2433;48.768;9.154;2024-01-06T13:40:18;2.90;;;2.13;;
4837;SDS011;2433;48.768;9.154;2024-01-06T13:42:51;3.20;;;1.67;;
4837;SDS011;2433;48.768;9.154;2024-01-06T13:45:18;2.97;;;1.90;;
4837;SDS011;2433;48.768;9.154;2024-01-06T13:47:43;2.42;;;2.00;;
4837;SDS011;2433;48.768;9.154;2024-01-06T13:50:12;3.90;;;2.42;;
4837;SDS011;2433;48.768;9.154;2024-01-06T13:52:39;3.67;;;1.90;;
4837;SDS011;2433;48.768;9.154;2024-01-06T13:55:05;1.37;;;1.23;;
4837;SDS011;2433;48.768;9.154;2024-01-06T13:57:31;2.85;;;1.65;;
4837;SDS011;2433;48.768;9.154;2024-01-06T13:59:57;2.03;;;1.77;;
4837;SDS011;2433;48.768;9.154;2024-01-06T14:02:23;2.60;;;2.10;;
4837;SDS011;2433;48.768;9.154;2024-01-06T14:04:49;2.50;;;1.80;;
4837;SDS011;2433;48.768;9.154;2024-01-06T14:07:15;2.73;;;2.37;;
4837;SDS011;2433;48.768;9.154;2024-01-06T14:09:44;1.97;;;1.77;;
4837;SDS011;2433;48.768;9.154;2024-01-06T14:12:10;2.83;;;2.10;;
4837;SDS011;2433;48.768;9.154;2024-01-06T14:14:35;3.00;;;1.87;;
4837;SDS011;2433;48.768;9.154;2024-01-06T14:17:01;2.90;;;2.23;;
4837;SDS011;2433;48.768;9.154;2024-01-06T14:19:27;2.63;;;2.13;;
4837;SDS011;2433;48.768;9.154;2024-01-06T14:21:53;1.53;;;1.30;;
4837;SDS011;2433;48.768;9.154;2024-01-06T14:24:18;2.57;;;1.90;;
4837;SDS011;2433;48.768;9.154;2024-01-06T14:26:51;2.00;;;1.63;;
4837;SDS011;2433;48.768;9.154;2024-01-06T14:29:18;4.23;;;1.83;;
4837;SDS011;2433;48.768;9.154;2024-01-06T14:31:44;2.90;;;2.10;;
4837;SDS011;2433;48.768;9.154;2024-01-06T14:34:10;2.30;;;1.97;;
4837;SDS011;2433;48.768;9.154;2024-01-06T14:36:36;5.40;;;2.80;;
4837;SDS011;2433;48.768;9.154;2024-01-06T14:39:02;1.27;;;0.80;;
4837;SDS011;2433;48.768;9.154;2024-01-06T14:41:29;2.42;;;2.22;;
4837;SDS011;2433;48.768;9.154;2024-01-06T14:43:54;3.10;;;1.87;;
4837;SDS011;2433;48.768;9.154;2024-01-06T14:46:20;3.87;;;2.43;;
4837;SDS011;2433;48.768;9.154;2024-01-06T14:48:46;3.30;;;2.00;;
4837;SDS011;2433;48.768;9.154;2024-01-06T14:51:11;3.07;;;2.00;;
4837;SDS011;2433;48.768;9.154;2024-01-06T14:53:37;2.30;;;2.10;;
4837;SDS011;2433;48.768;9.154;2024-01-06T14:56:02;2.63;;;1.30;;
4837;SDS011;2433;48.768;9.154;2024-01-06T14:58:29;2.30;;;2.10;;
4837;SDS011;2433;48.768;9.154;2024-01-06T15:00:55;2.70;;;1.88;;
4837;SDS011;2433;48.768;9.154;2024-01-06T15:03:20;3.00;;;2.50;;
4837;SDS011;2433;48.768;9.154;2024-01-06T15:05:46;3.45;;;2.10;;
4837;SDS011;2433;48.768;9.154;2024-01-06T15:08:12;3.10;;;2.20;;
4837;SDS011;2433;48.768;9.154;2024-01-06T15:10:38;1.73;;;1.63;;
4837;SDS011;2433;48.768;9.154;2024-01-06T15:13:03;3.30;;;2.13;;
4837;SDS011;2433;48.768;9.154;2024-01-06T15:15:29;4.20;;;2.13;;
4837;SDS011;2433;48.768;9.154;2024-01-06T15:17:55;3.53;;;2.57;;